createdAt,value
2023-02-24T00:02:08.625Z,6.87
2023-02-24T00:04:41.483Z,8.40
2023-02-24T00:07:11.270Z,8.73
2023-02-24T00:09:39.551Z,8.40
2023-02-24T00:12:13.369Z,7.60
2023-02-24T00:14:43.062Z,9.20
2023-02-24T00:17:12.545Z,7.97
2023-02-24T00:19:39.536Z,6.90
2023-02-24T00:22:10.635Z,8.27
2023-02-24T00:24:37.674Z,7.30
2023-02-24T00:27:12.135Z,7.37
2023-02-24T00:29:40.949Z,11.30
2023-02-24T00:32:13.343Z,9.27
2023-02-24T00:34:41.296Z,6.57
2023-02-24T00:37:08.330Z,5.10
2023-02-24T00:39:36.468Z,7.93
2023-02-24T00:42:06.631Z,5.37
2023-02-24T00:44:44.089Z,9.97
2023-02-24T00:47:12.518Z,12.27
2023-02-24T00:49:42.733Z,2.90
2023-02-24T00:52:16.056Z,8.70
2023-02-24T00:54:44.511Z,9.70
2023-02-24T00:57:11.843Z,9.83
2023-02-24T00:59:39.346Z,8.43
2023-02-24T01:02:07.631Z,8.33
2023-02-24T01:04:35.266Z,7.23
2023-02-24T01:07:02.340Z,7.03
2023-02-24T01:09:32.483Z,11.30
2023-02-24T01:12:22.511Z,8.03
2023-02-24T01:14:52.122Z,10.47
2023-02-24T01:17:20.469Z,8.60
2023-02-24T01:19:50.000Z,8.03
2023-02-24T01:22:21.098Z,10.80
2023-02-24T01:24:48.826Z,8.00
2023-02-24T01:27:19.228Z,6.70
2023-02-24T01:29:47.619Z,7.83
2023-02-24T01:32:17.806Z,8.17
2023-02-24T01:34:46.226Z,8.00
2023-02-24T01:37:16.634Z,10.80
2023-02-24T01:39:47.065Z,8.23
2023-02-24T01:42:21.807Z,6.50
2023-02-24T01:44:49.174Z,7.73
2023-02-24T01:47:22.102Z,6.93
2023-02-24T01:49:54.926Z,6.10
2023-02-24T01:52:24.304Z,6.70
2023-02-24T01:54:58.514Z,5.13
2023-02-24T01:57:29.603Z,9.23
2023-02-24T02:00:02.351Z,7.90
2023-02-24T02:02:29.842Z,13.37
2023-02-24T02:05:15.105Z,6.73
2023-02-24T02:07:43.788Z,7.30
2023-02-24T02:10:12.310Z,9.97
2023-02-24T02:12:46.651Z,6.27
2023-02-24T02:15:20.714Z,8.10
2023-02-24T02:17:47.810Z,8.27
2023-02-24T02:20:58.487Z,7.30
2023-02-24T02:23:41.348Z,8.87
2023-02-24T02:26:27.115Z,7.57
2023-02-24T02:29:00.140Z,10.17
2023-02-24T02:31:51.180Z,7.00
2023-02-24T02:34:42.915Z,5.70
2023-02-24T02:37:18.753Z,8.37
2023-02-24T02:40:17.338Z,4.10
2023-02-24T02:43:02.574Z,11.17
2023-02-24T02:45:40.600Z,4.27
2023-02-24T02:48:17.485Z,9.67
2023-02-24T02:50:53.013Z,9.07
2023-02-24T02:53:35.294Z,9.80
2023-02-24T02:56:13.428Z,5.83
2023-02-24T02:58:46.430Z,8.10
2023-02-24T03:01:18.944Z,7.10
2023-02-24T03:03:51.174Z,6.27
2023-02-24T03:06:22.545Z,10.30
2023-02-24T03:08:58.736Z,9.40
2023-02-24T03:11:26.818Z,4.93
2023-02-24T03:13:57.831Z,8.00
2023-02-24T03:16:26.877Z,6.33
2023-02-24T03:19:08.201Z,3.13
2023-02-24T03:21:39.175Z,14.27
2023-02-24T03:24:07.410Z,8.90
2023-02-24T03:26:44.306Z,7.20
2023-02-24T03:29:25.542Z,6.13
2023-02-24T03:32:15.739Z,8.77
2023-02-24T03:34:57.070Z,8.97
2023-02-24T03:37:28.320Z,8.97
2023-02-24T03:39:58.702Z,4.57
2023-02-24T03:42:34.057Z,10.13
2023-02-24T03:45:02.127Z,7.67
2023-02-24T03:47:30.533Z,6.63
2023-02-24T03:49:57.523Z,7.87
2023-02-24T03:52:42.973Z,7.30
2023-02-24T03:55:33.976Z,11.70
2023-02-24T03:58:31.537Z,8.53
2023-02-24T04:01:07.429Z,6.00
2023-02-24T04:03:49.459Z,13.03
2023-02-24T04:06:27.224Z,5.93
2023-02-24T04:09:09.067Z,5.90
2023-02-24T04:11:42.083Z,7.90
2023-02-24T04:14:25.642Z,7.47
2023-02-24T04:17:09.216Z,6.57
2023-02-24T04:19:40.841Z,7.10
2023-02-24T04:22:12.417Z,4.80
2023-02-24T04:24:43.398Z,8.33
2023-02-24T04:27:12.497Z,8.43
2023-02-24T04:29:47.522Z,3.57
2023-02-24T04:32:19.135Z,5.93
2023-02-24T04:34:46.058Z,4.33
2023-02-24T04:37:13.950Z,5.07
2023-02-24T04:39:41.025Z,7.27
2023-02-24T04:42:10.381Z,5.50
2023-02-24T04:44:37.320Z,4.23
2023-02-24T04:47:04.212Z,6.60
2023-02-24T04:49:31.240Z,8.33
2023-02-24T04:51:58.023Z,10.23
2023-02-24T04:54:24.900Z,4.83
2023-02-24T04:56:52.337Z,5.83
2023-02-24T04:59:21.041Z,8.70
2023-02-24T05:01:51.848Z,7.00
2023-02-24T05:04:19.575Z,5.30
2023-02-24T05:06:47.381Z,6.37
2023-02-24T05:09:21.004Z,8.47
2023-02-24T05:11:51.734Z,7.00
2023-02-24T05:14:25.003Z,3.20
2023-02-24T05:16:52.035Z,8.83
2023-02-24T05:19:39.277Z,5.20
2023-02-24T05:22:11.830Z,9.73
2023-02-24T05:24:38.823Z,7.27
2023-02-24T05:27:05.566Z,10.90
2023-02-24T05:29:34.875Z,5.47
2023-02-24T05:32:04.346Z,6.83
2023-02-24T05:34:33.155Z,6.40
2023-02-24T05:37:04.615Z,7.20
2023-02-24T05:39:31.510Z,8.97
2023-02-24T05:41:58.818Z,6.53
2023-02-24T05:44:27.338Z,7.87
2023-02-24T05:46:59.645Z,6.43
2023-02-24T05:49:36.663Z,7.00
2023-02-24T05:52:10.333Z,10.67
2023-02-24T05:54:40.261Z,8.67
2023-02-24T05:57:12.575Z,9.27
2023-02-24T05:59:41.501Z,9.87
2023-02-24T06:02:11.687Z,9.83
2023-02-24T06:04:41.189Z,11.27
2023-02-24T06:07:14.625Z,13.53
2023-02-24T06:09:44.185Z,8.97
2023-02-24T06:12:12.569Z,9.60
2023-02-24T06:14:39.585Z,10.83
2023-02-24T06:17:06.596Z,5.93
2023-02-24T06:19:33.764Z,6.00
2023-02-24T06:22:07.018Z,10.10
2023-02-24T06:24:33.968Z,7.70
2023-02-24T06:27:09.962Z,8.17
2023-02-24T06:29:38.115Z,10.23
2023-02-24T06:32:09.026Z,5.73
2023-02-24T06:34:37.629Z,6.10
2023-02-24T06:37:06.154Z,12.07
2023-02-24T06:39:36.788Z,7.30
2023-02-24T06:42:05.362Z,9.93
2023-02-24T06:44:34.012Z,5.37
2023-02-24T06:47:01.691Z,6.13
2023-02-24T06:49:29.790Z,7.40
2023-02-24T06:51:57.857Z,10.30
2023-02-24T06:54:28.605Z,9.60
2023-02-24T06:56:55.919Z,11.17
2023-02-24T06:59:23.085Z,9.37
2023-02-24T07:01:50.137Z,8.53
2023-02-24T07:04:18.131Z,11.70
2023-02-24T07:06:52.591Z,4.77
2023-02-24T07:09:22.654Z,12.30
2023-02-24T07:11:53.537Z,12.37
2023-02-24T07:14:23.073Z,13.27
2023-02-24T07:16:54.855Z,13.27
2023-02-24T07:19:27.079Z,12.40
2023-02-24T07:22:03.417Z,12.63
2023-02-24T07:24:40.997Z,12.50
2023-02-24T07:27:23.343Z,9.53
2023-02-24T07:29:53.398Z,10.43
2023-02-24T07:32:22.913Z,11.50
2023-02-24T07:34:50.142Z,9.37
2023-02-24T07:37:17.097Z,11.37
2023-02-24T07:39:44.078Z,10.20
2023-02-24T07:42:14.041Z,4.57
2023-02-24T07:44:40.992Z,11.03
2023-02-24T07:47:08.562Z,8.97
2023-02-24T07:49:36.452Z,11.27
2023-02-24T07:52:04.224Z,11.30
2023-02-24T07:54:31.490Z,7.83
2023-02-24T07:56:59.769Z,8.50
2023-02-24T07:59:33.222Z,7.33
2023-02-24T08:02:05.058Z,9.23
2023-02-24T08:04:33.330Z,7.43
2023-02-24T08:07:03.429Z,8.10
2023-02-24T08:10:07.366Z,9.30
2023-02-24T08:12:35.518Z,6.40
2023-02-24T08:15:08.989Z,6.70
2023-02-24T08:17:36.147Z,8.40
2023-02-24T08:20:15.151Z,6.87
2023-02-24T08:22:44.612Z,4.97
2023-02-24T08:25:18.749Z,6.63
2023-02-24T08:28:08.837Z,5.60
2023-02-24T08:30:39.113Z,4.37
2023-02-24T08:33:16.124Z,7.47
2023-02-24T08:35:45.405Z,6.23
2023-02-24T08:38:17.321Z,3.93
2023-02-24T08:40:50.830Z,5.30
2023-02-24T08:43:33.249Z,4.80
2023-02-24T08:46:25.791Z,9.37
2023-02-24T08:49:01.032Z,5.00
2023-02-24T08:51:29.690Z,8.30
2023-02-24T08:54:18.653Z,5.00
2023-02-24T08:56:56.320Z,6.57
2023-02-24T08:59:38.379Z,8.30
2023-02-24T09:02:19.680Z,6.73
2023-02-24T09:04:49.399Z,8.27
2023-02-24T09:07:23.301Z,5.97
2023-02-24T09:09:50.939Z,8.07
2023-02-24T09:12:25.129Z,5.63
2023-02-24T09:14:56.712Z,6.50
2023-02-24T09:17:41.055Z,4.13
2023-02-24T09:20:27.514Z,5.37
2023-02-24T09:23:07.537Z,6.87
2023-02-24T09:25:49.861Z,6.53
2023-02-24T09:28:25.019Z,3.97
2023-02-24T09:30:55.050Z,5.90
2023-02-24T09:33:28.093Z,5.23
2023-02-24T09:36:03.665Z,4.30
2023-02-24T09:39:03.451Z,6.70
2023-02-24T09:42:04.153Z,5.70
2023-02-24T09:44:39.433Z,4.80
2023-02-24T09:47:13.677Z,4.93
2023-02-24T09:49:57.086Z,5.67
2023-02-24T09:52:39.941Z,5.70
2023-02-24T09:55:26.565Z,6.07
2023-02-24T09:58:19.219Z,4.50
2023-02-24T10:01:31.165Z,4.43
2023-02-24T10:04:20.075Z,3.37
2023-02-24T10:06:51.940Z,3.40
2023-02-24T10:09:33.734Z,5.10
2023-02-24T10:12:17.318Z,5.67
2023-02-24T10:15:32.389Z,3.80
2023-02-24T10:18:27.546Z,3.20
2023-02-24T10:21:06.759Z,3.37
2023-02-24T10:24:02.551Z,4.90
2023-02-24T10:27:00.916Z,3.73
2023-02-24T10:29:51.161Z,4.80
2023-02-24T10:32:34.103Z,4.50
2023-02-24T10:35:02.337Z,4.47
2023-02-24T10:37:30.449Z,4.50
2023-02-24T10:40:10.278Z,5.40
2023-02-24T10:42:46.105Z,4.10
2023-02-24T10:45:23.979Z,4.43
2023-02-24T10:47:57.662Z,5.07
2023-02-24T10:50:34.900Z,8.17
2023-02-24T10:53:34.349Z,8.27
2023-02-24T10:56:26.871Z,4.93
2023-02-24T10:59:21.148Z,5.80
2023-02-24T11:02:00.144Z,4.77
2023-02-24T11:05:04.444Z,8.70
2023-02-24T11:07:45.498Z,4.93
2023-02-24T11:10:32.777Z,5.17
2023-02-24T11:13:20.027Z,6.53
2023-02-24T11:16:12.518Z,6.53
2023-02-24T11:18:45.976Z,4.70
2023-02-24T11:21:17.242Z,6.83
2023-02-24T11:23:51.969Z,6.53
2023-02-24T11:26:41.829Z,5.30
2023-02-24T11:29:24.093Z,4.83
2023-02-24T11:32:12.667Z,4.77
2023-02-24T11:35:09.497Z,5.90
2023-02-24T11:37:43.763Z,3.67
2023-02-24T11:40:24.051Z,4.40
2023-02-24T11:42:57.698Z,4.90
2023-02-24T11:45:33.705Z,6.73
2023-02-24T11:48:15.071Z,6.20
2023-02-24T11:50:47.670Z,5.50
2023-02-24T11:53:45.716Z,5.73
2023-02-24T11:56:28.073Z,4.90
2023-02-24T11:58:55.146Z,4.53
2023-02-24T12:01:48.450Z,4.73
2023-02-24T12:04:49.273Z,7.97
2023-02-24T12:07:28.540Z,8.20
2023-02-24T12:10:19.488Z,9.53
2023-02-24T12:12:53.073Z,6.37
2023-02-24T12:15:31.100Z,9.93
2023-02-24T12:18:16.398Z,8.93
2023-02-24T12:20:48.828Z,7.57
2023-02-24T12:23:21.128Z,7.27
2023-02-24T12:25:56.740Z,7.90
2023-02-24T12:28:39.041Z,9.07
2023-02-24T12:31:40.680Z,9.27
2023-02-24T12:34:36.822Z,9.27
2023-02-24T12:37:37.734Z,11.90
2023-02-24T12:40:24.169Z,13.10
2023-02-24T12:43:21.167Z,12.33
2023-02-24T12:46:12.679Z,10.17
2023-02-24T12:48:51.580Z,14.70
2023-02-24T12:51:46.549Z,14.97
2023-02-24T12:54:24.197Z,13.77
2023-02-24T12:57:19.488Z,15.90
2023-02-24T12:59:46.933Z,16.23
2023-02-24T13:02:43.684Z,13.97
2023-02-24T13:05:20.196Z,15.80
2023-02-24T13:07:49.925Z,18.57
2023-02-24T13:11:06.545Z,17.63
2023-02-24T13:13:52.806Z,19.53
2023-02-24T13:16:32.075Z,18.33
2023-02-24T13:19:20.613Z,22.43
2023-02-24T13:22:13.121Z,22.30
2023-02-24T13:24:43.010Z,16.23
2023-02-24T13:27:35.622Z,12.40
2023-02-24T13:30:23.715Z,11.83
2023-02-24T13:33:24.231Z,13.70
2023-02-24T13:36:10.644Z,10.37
2023-02-24T13:38:40.877Z,13.30
2023-02-24T13:41:22.949Z,10.77
2023-02-24T13:43:59.299Z,15.90
2023-02-24T13:46:47.045Z,13.13
2023-02-24T13:49:27.831Z,15.73
2023-02-24T13:52:03.276Z,9.40
2023-02-24T13:54:56.004Z,15.53
2023-02-24T13:57:50.797Z,16.53
2023-02-24T14:00:29.905Z,13.17
2023-02-24T14:02:57.923Z,15.43
2023-02-24T14:05:32.580Z,19.50
2023-02-24T14:08:00.460Z,15.10
2023-02-24T14:10:30.748Z,10.17
2023-02-24T14:13:22.587Z,11.60
2023-02-24T14:15:49.711Z,15.37
2023-02-24T14:18:26.654Z,14.43
2023-02-24T14:20:55.437Z,19.50
2023-02-24T14:23:28.822Z,12.60
2023-02-24T14:26:09.829Z,11.83
2023-02-24T14:28:40.048Z,14.53
2023-02-24T14:31:13.198Z,9.87
2023-02-24T14:33:42.871Z,15.60
2023-02-24T14:36:23.445Z,13.17
2023-02-24T14:39:30.891Z,9.93
2023-02-24T14:42:14.200Z,12.03
2023-02-24T14:44:47.924Z,13.63
2023-02-24T14:47:17.119Z,6.47
2023-02-24T14:50:02.649Z,9.17
2023-02-24T14:52:44.817Z,9.17
2023-02-24T14:55:19.506Z,7.50
2023-02-24T14:57:50.921Z,5.63
2023-02-24T15:00:24.394Z,9.03
2023-02-24T15:03:31.050Z,6.70
2023-02-24T15:06:04.817Z,11.37
2023-02-24T15:08:42.287Z,12.67
2023-02-24T15:11:21.351Z,8.77
2023-02-24T15:13:58.696Z,10.03
2023-02-24T15:16:30.023Z,10.80
2023-02-24T15:19:01.134Z,9.40
2023-02-24T15:21:31.872Z,16.03
2023-02-24T15:24:18.794Z,9.03
2023-02-24T15:26:57.596Z,6.33
2023-02-24T15:29:27.915Z,20.23
2023-02-24T15:32:00.260Z,12.50
2023-02-24T15:34:35.687Z,11.83
2023-02-24T15:37:13.474Z,15.93
2023-02-24T15:39:44.178Z,9.90
2023-02-24T15:42:17.150Z,13.43
2023-02-24T15:45:00.072Z,9.70
2023-02-24T15:47:41.682Z,11.07
2023-02-24T15:50:10.447Z,7.20
2023-02-24T15:52:37.837Z,12.80
2023-02-24T15:55:05.248Z,10.20
2023-02-24T15:57:33.684Z,11.23
2023-02-24T16:00:07.589Z,8.30
2023-02-24T16:02:34.636Z,7.83
2023-02-24T16:05:01.552Z,9.50
2023-02-24T16:07:36.156Z,6.87
2023-02-24T16:10:04.642Z,7.33
2023-02-24T16:12:36.343Z,9.67
2023-02-24T16:15:06.907Z,10.17
2023-02-24T16:17:33.648Z,10.87
2023-02-24T16:20:02.376Z,6.73
2023-02-24T16:22:29.873Z,14.70
2023-02-24T16:24:56.754Z,10.60
2023-02-24T16:27:26.176Z,18.33
2023-02-24T16:29:53.452Z,16.10
2023-02-24T16:32:23.982Z,16.97
2023-02-24T16:34:51.025Z,18.17
2023-02-24T16:37:27.385Z,13.03
2023-02-24T16:39:54.902Z,20.30
2023-02-24T16:42:22.206Z,16.50
2023-02-24T16:44:49.602Z,24.87
2023-02-24T16:47:20.602Z,24.43
2023-02-24T16:49:47.636Z,18.03
2023-02-24T16:52:19.178Z,20.77
2023-02-24T16:54:48.519Z,22.70
2023-02-24T16:57:16.409Z,18.30
2023-02-24T16:59:43.326Z,23.47
2023-02-24T17:02:23.532Z,20.83
2023-02-24T17:04:50.541Z,21.70
2023-02-24T17:07:19.202Z,33.27
2023-02-24T17:09:46.050Z,24.03
2023-02-24T17:12:15.699Z,26.03
2023-02-24T17:14:42.660Z,22.17
2023-02-24T17:17:09.702Z,27.50
2023-02-24T17:19:36.730Z,23.47
2023-02-24T17:22:04.751Z,25.83
2023-02-24T17:24:31.820Z,27.73
2023-02-24T17:27:00.123Z,27.63
2023-02-24T17:29:27.605Z,29.60
2023-02-24T17:31:54.753Z,29.37
2023-02-24T17:34:24.135Z,29.70
2023-02-24T17:36:51.190Z,27.23
2023-02-24T17:39:18.090Z,27.97
2023-02-24T17:41:44.976Z,35.80
2023-02-24T17:44:11.884Z,32.43
2023-02-24T17:46:39.090Z,36.33
2023-02-24T17:49:06.207Z,33.57
2023-02-24T17:51:33.374Z,27.90
2023-02-24T17:54:00.637Z,32.03
2023-02-24T17:56:27.867Z,30.27
2023-02-24T17:58:58.960Z,31.33
2023-02-24T18:01:26.684Z,26.47
2023-02-24T18:03:55.953Z,31.37
2023-02-24T18:06:23.876Z,31.93
2023-02-24T18:08:51.429Z,24.53
2023-02-24T18:11:20.980Z,21.60
2023-02-24T18:13:51.208Z,29.20
2023-02-24T18:16:18.609Z,31.67
2023-02-24T18:33:36.549Z,29.83
2023-02-24T18:43:30.857Z,29.20
2023-02-24T18:45:59.342Z,34.23
2023-02-24T18:48:26.862Z,29.17
2023-02-24T18:50:54.401Z,26.60
2023-02-24T18:53:24.055Z,32.27
2023-02-24T18:55:51.102Z,36.83
2023-02-24T18:58:18.131Z,30.33
2023-02-24T19:00:46.409Z,25.33
2023-02-24T19:03:13.399Z,39.93
2023-02-24T19:05:40.331Z,29.30
2023-02-24T19:08:07.374Z,34.70
2023-02-24T19:10:35.713Z,28.30
2023-02-24T19:13:02.808Z,30.80
2023-02-24T19:15:29.794Z,34.40
2023-02-24T19:17:56.966Z,28.80
2023-02-24T19:20:23.922Z,30.53
2023-02-24T19:22:51.760Z,30.90
2023-02-24T19:25:18.935Z,36.67
2023-02-24T19:27:47.954Z,33.70
2023-02-24T19:30:16.717Z,31.60
2023-02-24T19:32:43.805Z,29.37
2023-02-24T19:35:10.552Z,33.17
2023-02-24T19:37:41.404Z,29.50
2023-02-24T19:40:10.059Z,33.00
2023-02-24T19:42:37.046Z,32.30
2023-02-24T19:45:04.160Z,34.20
2023-02-24T19:47:31.063Z,24.83
2023-02-24T19:49:58.061Z,31.40
2023-02-24T19:52:24.948Z,26.73
2023-02-24T19:54:52.075Z,25.17
2023-02-24T19:57:19.059Z,23.20
2023-02-24T19:59:46.064Z,17.60
2023-02-24T20:02:12.825Z,24.33
2023-02-24T20:04:39.756Z,20.53
2023-02-24T20:07:06.881Z,18.40
2023-02-24T20:09:33.701Z,23.10
2023-02-24T20:12:02.112Z,26.10
2023-02-24T20:14:29.859Z,22.03
2023-02-24T20:16:56.798Z,24.13
2023-02-24T20:19:23.994Z,28.87
2023-02-24T20:21:51.607Z,29.73
2023-02-24T20:24:19.432Z,24.77
2023-02-24T20:26:49.629Z,30.50
2023-02-24T20:29:18.320Z,31.80
2023-02-24T20:31:46.722Z,26.07
2023-02-24T20:34:16.388Z,24.10
2023-02-24T20:36:44.241Z,29.63
2023-02-24T20:39:12.600Z,22.93
2023-02-24T20:41:40.765Z,28.37
2023-02-24T20:44:08.392Z,16.37
2023-02-24T20:46:35.423Z,23.83
2023-02-24T20:49:05.703Z,13.70
2023-02-24T20:51:34.791Z,18.03
2023-02-24T20:54:02.185Z,13.30
2023-02-24T20:56:33.371Z,16.03
2023-02-24T20:59:06.345Z,18.17
2023-02-24T21:01:34.331Z,11.33
2023-02-24T21:04:02.853Z,16.90
2023-02-24T21:06:30.715Z,10.83
2023-02-24T21:08:58.330Z,15.00
2023-02-24T21:11:26.422Z,12.17
2023-02-24T21:13:53.466Z,11.47
2023-02-24T21:16:21.900Z,11.43
2023-02-24T21:18:50.355Z,10.47
2023-02-24T21:21:19.363Z,5.67
2023-02-24T21:23:47.303Z,7.70
2023-02-24T21:26:17.223Z,8.63
2023-02-24T21:28:44.597Z,10.63
2023-02-24T21:31:15.123Z,5.77
2023-02-24T21:33:42.121Z,8.70
2023-02-24T21:36:13.649Z,7.37
2023-02-24T21:38:41.493Z,9.53
2023-02-24T21:41:13.786Z,6.40
2023-02-24T21:43:41.430Z,7.70
2023-02-24T21:46:12.073Z,6.97
2023-02-24T21:48:40.880Z,3.17
2023-02-24T21:51:10.129Z,5.07
2023-02-24T21:53:39.608Z,5.90
2023-02-24T21:56:11.264Z,3.03
2023-02-24T21:58:39.776Z,4.80
2023-02-24T22:01:15.551Z,2.77
2023-02-24T22:03:42.690Z,2.77
2023-02-24T22:06:11.727Z,3.80
2023-02-24T22:08:43.534Z,2.67
2023-02-24T22:11:12.855Z,3.07
2023-02-24T22:13:40.774Z,2.37
2023-02-24T22:16:09.871Z,3.50
2023-02-24T22:18:36.976Z,3.00
2023-02-24T22:21:12.453Z,5.80
2023-02-24T22:23:40.164Z,2.93
2023-02-24T22:26:09.493Z,2.20
2023-02-24T22:28:41.417Z,4.77
2023-02-24T22:31:11.171Z,4.03
2023-02-24T22:33:42.951Z,1.93
2023-02-24T22:36:15.175Z,2.93
2023-02-24T22:38:43.511Z,3.27
2023-02-24T22:41:17.891Z,4.83
2023-02-24T22:43:45.593Z,2.77
2023-02-24T22:46:15.363Z,3.43
2023-02-24T22:48:42.734Z,2.57
2023-02-24T22:51:11.879Z,3.83
2023-02-24T22:53:41.910Z,4.27
2023-02-24T22:56:11.643Z,3.70
2023-02-24T22:58:44.734Z,4.03
2023-02-24T23:01:15.129Z,1.77
2023-02-24T23:03:43.828Z,5.40
2023-02-24T23:06:13.610Z,4.83
2023-02-24T23:08:42.726Z,3.83
2023-02-24T23:11:23.900Z,4.73
2023-02-24T23:13:52.288Z,3.40
2023-02-24T23:16:23.888Z,3.87
2023-02-24T23:18:51.167Z,3.20
2023-02-24T23:21:26.805Z,4.40
2023-02-24T23:23:57.133Z,3.90
2023-02-24T23:26:32.540Z,4.17
2023-02-24T23:28:59.785Z,3.87
2023-02-24T23:31:27.962Z,3.93
2023-02-24T23:33:55.496Z,3.33
2023-02-24T23:36:24.248Z,4.00
2023-02-24T23:38:52.972Z,2.93
2023-02-24T23:41:20.692Z,2.77
2023-02-24T23:43:47.626Z,2.97
2023-02-24T23:46:14.549Z,3.93
2023-02-24T23:48:42.193Z,4.90
2023-02-24T23:51:13.996Z,1.77
2023-02-24T23:53:45.137Z,1.40
2023-02-24T23:56:20.725Z,2.20
2023-02-24T23:58:56.924Z,2.87
